sensor_id;sensor_type;location;lat;lon;timestamp;P1;durP1;ratioP1;P2;durP2;ratioP2
75104;SDS011;64778;47.314;8.466;2023-02-21T00:01:36;6.95;;;3.20;;
75104;SDS011;64778;47.314;8.466;2023-02-21T00:04:20;6.38;;;3.40;;
75104;SDS011;64778;47.314;8.466;2023-02-21T00:07:04;18.35;;;10.60;;
75104;SDS011;64778;47.314;8.466;2023-02-21T00:09:49;21.15;;;9.05;;
75104;SDS011;64778;47.314;8.466;2023-02-21T00:12:33;7.75;;;4.95;;
75104;SDS011;64778;47.314;8.466;2023-02-21T00:15:19;7.25;;;4.32;;
75104;SDS011;64778;47.314;8.466;2023-02-21T00:18:03;8.20;;;4.90;;
75104;SDS011;64778;47.314;8.466;2023-02-21T00:20:47;7.50;;;4.28;;
75104;SDS011;64778;47.314;8.466;2023-02-21T00:23:32;5.80;;;4.30;;
75104;SDS011;64778;47.314;8.466;2023-02-21T00:26:17;7.22;;;4.30;;
75104;SDS011;64778;47.314;8.466;2023-02-21T00:29:02;7.18;;;4.32;;
75104;SDS011;64778;47.314;8.466;2023-02-21T00:31:49;8.20;;;4.30;;
75104;SDS011;64778;47.314;8.466;2023-02-21T00:34:33;6.93;;;4.05;;
75104;SDS011;64778;47.314;8.466;2023-02-21T00:37:17;7.28;;;4.10;;
75104;SDS011;64778;47.314;8.466;2023-02-21T00:40:04;6.35;;;3.85;;
75104;SDS011;64778;47.314;8.466;2023-02-21T00:42:49;6.10;;;3.50;;
75104;SDS011;64778;47.314;8.466;2023-02-21T00:45:33;5.90;;;3.70;;
75104;SDS011;64778;47.314;8.466;2023-02-21T00:48:21;6.45;;;3.53;;
75104;SDS011;64778;47.314;8.466;2023-02-21T00:51:09;6.47;;;3.50;;
75104;SDS011;64778;47.314;8.466;2023-02-21T00:53:53;6.13;;;3.40;;
75104;SDS011;64778;47.314;8.466;2023-02-21T00:56:37;5.95;;;3.50;;
75104;SDS011;64778;47.314;8.466;2023-02-21T00:59:22;6.17;;;3.47;;
75104;SDS011;64778;47.314;8.466;2023-02-21T01:02:06;5.43;;;3.27;;
75104;SDS011;64778;47.314;8.466;2023-02-21T01:04:53;7.35;;;3.40;;
75104;SDS011;64778;47.314;8.466;2023-02-21T01:07:37;7.75;;;3.88;;
75104;SDS011;64778;47.314;8.466;2023-02-21T01:10:24;5.53;;;3.30;;
75104;SDS011;64778;47.314;8.466;2023-02-21T01:13:08;7.18;;;4.00;;
75104;SDS011;64778;47.314;8.466;2023-02-21T01:15:53;5.63;;;3.60;;
75104;SDS011;64778;47.314;8.466;2023-02-21T01:18:37;5.00;;;3.38;;
75104;SDS011;64778;47.314;8.466;2023-02-21T01:21:21;6.85;;;3.30;;
75104;SDS011;64778;47.314;8.466;2023-02-21T01:24:06;5.50;;;3.45;;
75104;SDS011;64778;47.314;8.466;2023-02-21T01:26:54;7.90;;;3.53;;
75104;SDS011;64778;47.314;8.466;2023-02-21T01:29:40;5.93;;;3.35;;
75104;SDS011;64778;47.314;8.466;2023-02-21T01:32:27;5.35;;;3.58;;
75104;SDS011;64778;47.314;8.466;2023-02-21T01:35:11;7.18;;;3.78;;
75104;SDS011;64778;47.314;8.466;2023-02-21T01:37:57;4.50;;;3.33;;
75104;SDS011;64778;47.314;8.466;2023-02-21T01:40:44;5.13;;;3.67;;
75104;SDS011;64778;47.314;8.466;2023-02-21T01:43:28;8.00;;;3.50;;
75104;SDS011;64778;47.314;8.466;2023-02-21T01:46:14;5.07;;;3.30;;
75104;SDS011;64778;47.314;8.466;2023-02-21T01:49:03;6.30;;;3.47;;
75104;SDS011;64778;47.314;8.466;2023-02-21T01:51:51;4.78;;;3.20;;
75104;SDS011;64778;47.314;8.466;2023-02-21T01:54:37;4.97;;;3.20;;
75104;SDS011;64778;47.314;8.466;2023-02-21T01:57:24;6.45;;;3.25;;
75104;SDS011;64778;47.314;8.466;2023-02-21T02:00:09;5.13;;;3.50;;
75104;SDS011;64778;47.314;8.466;2023-02-21T02:03:01;5.75;;;3.60;;
75104;SDS011;64778;47.314;8.466;2023-02-21T02:05:57;6.45;;;3.22;;
75104;SDS011;64778;47.314;8.466;2023-02-21T02:08:46;5.60;;;3.42;;
75104;SDS011;64778;47.314;8.466;2023-02-21T02:28:35;4.47;;;2.97;;
75104;SDS011;64778;47.314;8.466;2023-02-21T02:31:27;5.22;;;3.45;;
75104;SDS011;64778;47.314;8.466;2023-02-21T02:36:43;5.00;;;3.00;;
75104;SDS011;64778;47.314;8.466;2023-02-21T02:44:35;5.40;;;3.40;;
75104;SDS011;64778;47.314;8.466;2023-02-21T02:47:03;6.50;;;3.67;;
75104;SDS011;64778;47.314;8.466;2023-02-21T02:49:31;9.87;;;4.33;;
75104;SDS011;64778;47.314;8.466;2023-02-21T02:52:04;12.13;;;4.82;;
75104;SDS011;64778;47.314;8.466;2023-02-21T02:54:32;12.20;;;5.40;;
75104;SDS011;64778;47.314;8.466;2023-02-21T02:57:00;25.80;;;8.00;;
75104;SDS011;64778;47.314;8.466;2023-02-21T02:59:37;19.60;;;6.85;;
75104;SDS011;64778;47.314;8.466;2023-02-21T03:02:22;19.47;;;6.30;;
75104;SDS011;64778;47.314;8.466;2023-02-21T03:05:13;17.85;;;6.72;;
75104;SDS011;64778;47.314;8.466;2023-02-21T03:08:16;12.70;;;5.20;;
75104;SDS011;64778;47.314;8.466;2023-02-21T03:13:16;22.15;;;6.20;;
75104;SDS011;64778;47.314;8.466;2023-02-21T03:15:55;13.85;;;5.20;;
75104;SDS011;64778;47.314;8.466;2023-02-21T03:18:30;12.68;;;4.30;;
75104;SDS011;64778;47.314;8.466;2023-02-21T03:21:02;9.75;;;4.13;;
75104;SDS011;64778;47.314;8.466;2023-02-21T03:23:30;12.63;;;5.63;;
75104;SDS011;64778;47.314;8.466;2023-02-21T03:26:00;19.13;;;5.63;;
75104;SDS011;64778;47.314;8.466;2023-02-21T03:28:28;47.45;;;11.48;;
75104;SDS011;64778;47.314;8.466;2023-02-21T03:31:00;34.22;;;9.30;;
75104;SDS011;64778;47.314;8.466;2023-02-21T03:33:31;36.38;;;9.07;;
75104;SDS011;64778;47.314;8.466;2023-02-21T03:35:58;37.83;;;10.17;;
75104;SDS011;64778;47.314;8.466;2023-02-21T03:38:27;39.17;;;10.63;;
75104;SDS011;64778;47.314;8.466;2023-02-21T03:40:54;43.17;;;10.55;;
75104;SDS011;64778;47.314;8.466;2023-02-21T03:43:20;27.02;;;8.30;;
75104;SDS011;64778;47.314;8.466;2023-02-21T03:45:48;24.63;;;7.73;;
75104;SDS011;64778;47.314;8.466;2023-02-21T03:48:16;23.13;;;6.90;;
75104;SDS011;64778;47.314;8.466;2023-02-21T03:50:42;16.98;;;5.85;;
75104;SDS011;64778;47.314;8.466;2023-02-21T03:53:08;11.93;;;5.07;;
75104;SDS011;64778;47.314;8.466;2023-02-21T03:55:34;11.38;;;4.85;;
75104;SDS011;64778;47.314;8.466;2023-02-21T03:58:02;36.55;;;8.75;;
75104;SDS011;64778;47.314;8.466;2023-02-21T04:00:30;23.13;;;6.68;;
75104;SDS011;64778;47.314;8.466;2023-02-21T04:02:56;13.70;;;5.43;;
75104;SDS011;64778;47.314;8.466;2023-02-21T04:05:24;13.45;;;4.88;;
75104;SDS011;64778;47.314;8.466;2023-02-21T04:07:49;10.83;;;4.57;;
75104;SDS011;64778;47.314;8.466;2023-02-21T04:10:15;11.10;;;4.60;;
75104;SDS011;64778;47.314;8.466;2023-02-21T04:12:41;12.77;;;4.72;;
75104;SDS011;64778;47.314;8.466;2023-02-21T04:15:06;11.13;;;4.43;;
75104;SDS011;64778;47.314;8.466;2023-02-21T04:17:32;14.50;;;4.75;;
75104;SDS011;64778;47.314;8.466;2023-02-21T04:19:58;14.02;;;4.93;;
75104;SDS011;64778;47.314;8.466;2023-02-21T04:22:26;9.27;;;3.80;;
75104;SDS011;64778;47.314;8.466;2023-02-21T04:24:54;14.55;;;5.18;;
75104;SDS011;64778;47.314;8.466;2023-02-21T04:27:19;18.10;;;7.70;;
75104;SDS011;64778;47.314;8.466;2023-02-21T04:29:48;17.45;;;9.07;;
75104;SDS011;64778;47.314;8.466;2023-02-21T04:32:13;18.20;;;8.97;;
75104;SDS011;64778;47.314;8.466;2023-02-21T04:34:41;12.90;;;6.27;;
75104;SDS011;64778;47.314;8.466;2023-02-21T04:37:09;11.50;;;5.00;;
75104;SDS011;64778;47.314;8.466;2023-02-21T04:39:37;10.93;;;5.18;;
75104;SDS011;64778;47.314;8.466;2023-02-21T04:42:05;10.40;;;4.35;;
75104;SDS011;64778;47.314;8.466;2023-02-21T04:44:31;8.40;;;4.10;;
75104;SDS011;64778;47.314;8.466;2023-02-21T04:46:57;8.10;;;4.63;;
75104;SDS011;64778;47.314;8.466;2023-02-21T04:49:22;7.05;;;3.90;;
75104;SDS011;64778;47.314;8.466;2023-02-21T04:51:51;6.10;;;3.58;;
75104;SDS011;64778;47.314;8.466;2023-02-21T04:54:20;5.65;;;3.10;;
75104;SDS011;64778;47.314;8.466;2023-02-21T04:56:46;6.07;;;3.67;;
75104;SDS011;64778;47.314;8.466;2023-02-21T04:59:13;7.63;;;4.10;;
75104;SDS011;64778;47.314;8.466;2023-02-21T05:01:44;5.78;;;3.70;;
75104;SDS011;64778;47.314;8.466;2023-02-21T05:04:09;5.10;;;3.70;;
75104;SDS011;64778;47.314;8.466;2023-02-21T05:06:35;5.53;;;4.13;;
75104;SDS011;64778;47.314;8.466;2023-02-21T05:09:01;5.40;;;4.10;;
75104;SDS011;64778;47.314;8.466;2023-02-21T05:11:27;5.75;;;4.18;;
75104;SDS011;64778;47.314;8.466;2023-02-21T05:13:58;5.25;;;4.07;;
75104;SDS011;64778;47.314;8.466;2023-02-21T05:16:27;6.72;;;3.60;;
75104;SDS011;64778;47.314;8.466;2023-02-21T05:19:01;4.97;;;3.57;;
75104;SDS011;64778;47.314;8.466;2023-02-21T05:21:32;4.85;;;3.15;;
75104;SDS011;64778;47.314;8.466;2023-02-21T05:24:02;6.07;;;3.67;;
75104;SDS011;64778;47.314;8.466;2023-02-21T05:26:33;4.53;;;3.03;;
75104;SDS011;64778;47.314;8.466;2023-02-21T05:29:03;5.30;;;3.00;;
75104;SDS011;64778;47.314;8.466;2023-02-21T05:31:31;4.07;;;3.00;;
75104;SDS011;64778;47.314;8.466;2023-02-21T05:33:59;4.35;;;3.08;;
75104;SDS011;64778;47.314;8.466;2023-02-21T05:36:25;4.10;;;2.90;;
75104;SDS011;64778;47.314;8.466;2023-02-21T05:38:53;5.18;;;2.90;;
75104;SDS011;64778;47.314;8.466;2023-02-21T05:41:19;4.73;;;2.90;;
75104;SDS011;64778;47.314;8.466;2023-02-21T05:43:46;7.72;;;3.22;;
75104;SDS011;64778;47.314;8.466;2023-02-21T05:46:55;6.43;;;3.25;;
75104;SDS011;64778;47.314;8.466;2023-02-21T05:49:04;6.43;;;3.40;;
75104;SDS011;64778;47.314;8.466;2023-02-21T05:51:34;4.93;;;3.45;;
75104;SDS011;64778;47.314;8.466;2023-02-21T05:54:04;5.57;;;3.30;;
75104;SDS011;64778;47.314;8.466;2023-02-21T05:56:40;5.57;;;3.35;;
75104;SDS011;64778;47.314;8.466;2023-02-21T05:59:07;4.68;;;3.25;;
75104;SDS011;64778;47.314;8.466;2023-02-21T06:01:33;4.47;;;3.13;;
75104;SDS011;64778;47.314;8.466;2023-02-21T06:03:59;6.00;;;3.47;;
75104;SDS011;64778;47.314;8.466;2023-02-21T06:06:25;7.18;;;3.35;;
75104;SDS011;64778;47.314;8.466;2023-02-21T06:08:50;5.93;;;3.67;;
75104;SDS011;64778;47.314;8.466;2023-02-21T06:11:26;5.90;;;3.20;;
75104;SDS011;64778;47.314;8.466;2023-02-21T06:13:53;5.13;;;3.25;;
75104;SDS011;64778;47.314;8.466;2023-02-21T06:16:22;6.18;;;3.50;;
75104;SDS011;64778;47.314;8.466;2023-02-21T06:18:53;6.13;;;3.67;;
75104;SDS011;64778;47.314;8.466;2023-02-21T06:21:23;6.80;;;3.40;;
75104;SDS011;64778;47.314;8.466;2023-02-21T06:23:48;4.93;;;3.33;;
75104;SDS011;64778;47.314;8.466;2023-02-21T06:26:15;4.30;;;3.20;;
75104;SDS011;64778;47.314;8.466;2023-02-21T06:28:44;5.57;;;3.30;;
75104;SDS011;64778;47.314;8.466;2023-02-21T06:31:10;5.75;;;3.28;;
75104;SDS011;64778;47.314;8.466;2023-02-21T06:33:35;6.40;;;3.60;;
75104;SDS011;64778;47.314;8.466;2023-02-21T06:36:09;7.37;;;3.50;;
75104;SDS011;64778;47.314;8.466;2023-02-21T06:38:45;4.30;;;2.70;;
75104;SDS011;64778;47.314;8.466;2023-02-21T06:41:14;4.03;;;2.35;;
75104;SDS011;64778;47.314;8.466;2023-02-21T06:43:48;4.93;;;3.03;;
75104;SDS011;64778;47.314;8.466;2023-02-21T06:46:20;5.93;;;2.85;;
75104;SDS011;64778;47.314;8.466;2023-02-21T06:48:48;5.18;;;2.97;;
75104;SDS011;64778;47.314;8.466;2023-02-21T06:51:13;3.90;;;2.47;;
75104;SDS011;64778;47.314;8.466;2023-02-21T06:56:10;5.45;;;2.80;;
75104;SDS011;64778;47.314;8.466;2023-02-21T06:58:40;5.78;;;3.10;;
75104;SDS011;64778;47.314;8.466;2023-02-21T07:01:08;4.78;;;3.10;;
75104;SDS011;64778;47.314;8.466;2023-02-21T07:03:39;5.95;;;2.92;;
75104;SDS011;64778;47.314;8.466;2023-02-21T07:06:09;5.30;;;3.05;;
75104;SDS011;64778;47.314;8.466;2023-02-21T07:08:35;10.75;;;3.63;;
75104;SDS011;64778;47.314;8.466;2023-02-21T07:11:00;7.35;;;2.97;;
75104;SDS011;64778;47.314;8.466;2023-02-21T07:13:28;6.05;;;2.83;;
75104;SDS011;64778;47.314;8.466;2023-02-21T07:15:56;7.13;;;3.00;;
75104;SDS011;64778;47.314;8.466;2023-02-21T09:10:55;6.57;;;4.03;;
75104;SDS011;64778;47.314;8.466;2023-02-21T09:13:28;8.45;;;3.72;;
75104;SDS011;64778;47.314;8.466;2023-02-21T09:15:57;5.78;;;3.78;;
75104;SDS011;64778;47.314;8.466;2023-02-21T09:18:25;5.38;;;3.90;;
75104;SDS011;64778;47.314;8.466;2023-02-21T09:20:51;7.35;;;4.88;;
75104;SDS011;64778;47.314;8.466;2023-02-21T09:23:22;11.43;;;5.80;;
75104;SDS011;64778;47.314;8.466;2023-02-21T09:25:51;6.93;;;3.95;;
75104;SDS011;64778;47.314;8.466;2023-02-21T09:30:43;6.63;;;4.05;;
75104;SDS011;64778;47.314;8.466;2023-02-21T09:33:10;8.00;;;4.25;;
75104;SDS011;64778;47.314;8.466;2023-02-21T09:35:36;9.85;;;3.78;;
75104;SDS011;64778;47.314;8.466;2023-02-21T09:38:07;7.72;;;3.80;;
75104;SDS011;64778;47.314;8.466;2023-02-21T09:40:35;7.25;;;4.40;;
75104;SDS011;64778;47.314;8.466;2023-02-21T09:43:05;5.70;;;3.95;;
75104;SDS011;64778;47.314;8.466;2023-02-21T09:45:53;7.25;;;4.45;;
75104;SDS011;64778;47.314;8.466;2023-02-21T09:48:22;10.50;;;4.22;;
75104;SDS011;64778;47.314;8.466;2023-02-21T09:50:53;7.03;;;4.00;;
75104;SDS011;64778;47.314;8.466;2023-02-21T09:53:33;8.57;;;3.97;;
75104;SDS011;64778;47.314;8.466;2023-02-21T09:56:05;8.60;;;4.60;;
75104;SDS011;64778;47.314;8.466;2023-02-21T09:58:52;7.47;;;4.82;;
75104;SDS011;64778;47.314;8.466;2023-02-21T10:15:38;7.32;;;4.90;;
75104;SDS011;64778;47.314;8.466;2023-02-21T10:17:59;6.68;;;4.57;;
75104;SDS011;64778;47.314;8.466;2023-02-21T10:20:43;7.75;;;5.07;;
75104;SDS011;64778;47.314;8.466;2023-02-21T10:23:15;8.13;;;4.90;;
75104;SDS011;64778;47.314;8.466;2023-02-21T10:25:43;12.13;;;6.00;;
75104;SDS011;64778;47.314;8.466;2023-02-21T10:28:18;11.38;;;5.57;;
75104;SDS011;64778;47.314;8.466;2023-02-21T10:30:48;10.13;;;5.63;;
75104;SDS011;64778;47.314;8.466;2023-02-21T10:33:18;13.27;;;5.95;;
75104;SDS011;64778;47.314;8.466;2023-02-21T10:35:48;7.55;;;5.35;;
75104;SDS011;64778;47.314;8.466;2023-02-21T10:38:18;8.98;;;5.57;;
75104;SDS011;64778;47.314;8.466;2023-02-21T10:40:57;12.02;;;7.07;;
75104;SDS011;64778;47.314;8.466;2023-02-21T10:43:31;9.95;;;5.28;;
75104;SDS011;64778;47.314;8.466;2023-02-21T10:46:04;11.98;;;4.80;;
75104;SDS011;64778;47.314;8.466;2023-02-21T10:51:12;7.55;;;4.43;;
75104;SDS011;64778;47.314;8.466;2023-02-21T10:53:53;7.72;;;4.50;;
75104;SDS011;64778;47.314;8.466;2023-02-21T10:56:41;7.55;;;4.00;;
75104;SDS011;64778;47.314;8.466;2023-02-21T10:59:18;16.95;;;4.30;;
75104;SDS011;64778;47.314;8.466;2023-02-21T11:01:52;7.15;;;3.42;;
75104;SDS011;64778;47.314;8.466;2023-02-21T11:50:39;3.50;;;1.48;;
75104;SDS011;64778;47.314;8.466;2023-02-21T11:53:25;4.07;;;2.05;;
75104;SDS011;64778;47.314;8.466;2023-02-21T12:50:47;5.40;;;3.00;;
75104;SDS011;64778;47.314;8.466;2023-02-21T12:53:21;6.97;;;2.60;;
75104;SDS011;64778;47.314;8.466;2023-02-21T12:58:30;3.20;;;1.95;;
75104;SDS011;64778;47.314;8.466;2023-02-21T13:01:03;3.80;;;2.40;;
75104;SDS011;64778;47.314;8.466;2023-02-21T13:03:50;5.13;;;2.30;;
75104;SDS011;64778;47.314;8.466;2023-02-21T13:09:08;5.05;;;1.50;;
75104;SDS011;64778;47.314;8.466;2023-02-21T13:11:41;3.95;;;1.55;;
75104;SDS011;64778;47.314;8.466;2023-02-21T13:14:31;5.38;;;2.10;;
75104;SDS011;64778;47.314;8.466;2023-02-21T13:17:00;2.30;;;1.80;;
75104;SDS011;64778;47.314;8.466;2023-02-21T13:19:30;3.50;;;1.70;;
75104;SDS011;64778;47.314;8.466;2023-02-21T13:22:21;3.67;;;1.60;;
75104;SDS011;64778;47.314;8.466;2023-02-21T13:28:16;2.70;;;1.80;;
75104;SDS011;64778;47.314;8.466;2023-02-21T13:30:49;3.83;;;1.80;;
75104;SDS011;64778;47.314;8.466;2023-02-21T13:33:27;7.65;;;1.98;;
75104;SDS011;64778;47.314;8.466;2023-02-21T13:35:59;7.10;;;2.53;;
75104;SDS011;64778;47.314;8.466;2023-02-21T13:38:30;4.88;;;2.40;;
75104;SDS011;64778;47.314;8.466;2023-02-21T14:01:48;3.70;;;2.37;;
75104;SDS011;64778;47.314;8.466;2023-02-21T14:09:26;4.97;;;2.20;;
75104;SDS011;64778;47.314;8.466;2023-02-21T14:11:58;4.53;;;2.30;;
75104;SDS011;64778;47.314;8.466;2023-02-21T14:14:30;5.60;;;2.38;;
75104;SDS011;64778;47.314;8.466;2023-02-21T14:17:12;10.27;;;5.90;;
75104;SDS011;64778;47.314;8.466;2023-02-21T14:19:50;5.82;;;3.08;;
75104;SDS011;64778;47.314;8.466;2023-02-21T14:22:22;5.68;;;2.80;;
75104;SDS011;64778;47.314;8.466;2023-02-21T14:24:51;6.45;;;2.65;;
75104;SDS011;64778;47.314;8.466;2023-02-21T14:27:31;5.88;;;2.72;;
75104;SDS011;64778;47.314;8.466;2023-02-21T14:34:56;6.97;;;2.90;;
75104;SDS011;64778;47.314;8.466;2023-02-21T14:37:29;4.13;;;2.95;;
75104;SDS011;64778;47.314;8.466;2023-02-21T14:47:44;29.63;;;22.30;;
75104;SDS011;64778;47.314;8.466;2023-02-21T14:50:29;6.03;;;3.42;;
75104;SDS011;64778;47.314;8.466;2023-02-21T15:06:59;9.43;;;3.70;;
75104;SDS011;64778;47.314;8.466;2023-02-21T15:09:32;6.80;;;3.80;;
75104;SDS011;64778;47.314;8.466;2023-02-21T15:12:01;10.20;;;3.92;;
75104;SDS011;64778;47.314;8.466;2023-02-21T15:14:35;9.48;;;4.15;;
75104;SDS011;64778;47.314;8.466;2023-02-21T15:17:12;8.95;;;3.55;;
75104;SDS011;64778;47.314;8.466;2023-02-21T15:19:41;5.23;;;3.60;;
75104;SDS011;64778;47.314;8.466;2023-02-21T15:24:55;8.93;;;3.50;;
75104;SDS011;64778;47.314;8.466;2023-02-21T15:27:33;7.07;;;3.55;;
75104;SDS011;64778;47.314;8.466;2023-02-21T15:32:43;12.52;;;5.50;;
75104;SDS011;64778;47.314;8.466;2023-02-21T15:35:37;8.98;;;4.43;;
75104;SDS011;64778;47.314;8.466;2023-02-21T15:40:45;10.60;;;4.20;;
75104;SDS011;64778;47.314;8.466;2023-02-21T15:43:28;7.32;;;4.40;;
75104;SDS011;64778;47.314;8.466;2023-02-21T15:45:59;6.55;;;3.90;;
75104;SDS011;64778;47.314;8.466;2023-02-21T16:00:41;9.38;;;4.07;;
75104;SDS011;64778;47.314;8.466;2023-02-21T16:14:22;13.40;;;6.88;;
75104;SDS011;64778;47.314;8.466;2023-02-21T16:19:38;10.80;;;4.60;;
75104;SDS011;64778;47.314;8.466;2023-02-21T16:22:30;10.00;;;4.00;;
75104;SDS011;64778;47.314;8.466;2023-02-21T16:57:59;11.80;;;5.78;;
75104;SDS011;64778;47.314;8.466;2023-02-21T17:00:30;10.63;;;5.50;;
75104;SDS011;64778;47.314;8.466;2023-02-21T17:02:58;13.27;;;5.82;;
75104;SDS011;64778;47.314;8.466;2023-02-21T17:05:27;12.55;;;6.05;;
75104;SDS011;64778;47.314;8.466;2023-02-21T17:07:54;7.45;;;5.50;;
75104;SDS011;64778;47.314;8.466;2023-02-21T17:10:23;11.65;;;6.05;;
75104;SDS011;64778;47.314;8.466;2023-02-21T17:12:48;12.07;;;6.20;;
75104;SDS011;64778;47.314;8.466;2023-02-21T17:15:14;10.80;;;6.27;;
75104;SDS011;64778;47.314;8.466;2023-02-21T17:17:40;12.25;;;6.50;;
75104;SDS011;64778;47.314;8.466;2023-02-21T17:20:06;14.23;;;7.03;;
75104;SDS011;64778;47.314;8.466;2023-02-21T17:22:33;12.98;;;7.50;;
75104;SDS011;64778;47.314;8.466;2023-02-21T17:25:01;20.30;;;13.25;;
75104;SDS011;64778;47.314;8.466;2023-02-21T17:27:26;15.87;;;10.47;;
75104;SDS011;64778;47.314;8.466;2023-02-21T17:29:54;15.85;;;10.10;;
75104;SDS011;64778;47.314;8.466;2023-02-21T17:32:20;13.10;;;8.27;;
75104;SDS011;64778;47.314;8.466;2023-02-21T17:34:45;12.75;;;7.38;;
75104;SDS011;64778;47.314;8.466;2023-02-21T17:37:11;14.17;;;8.47;;
75104;SDS011;64778;47.314;8.466;2023-02-21T17:39:37;13.55;;;7.43;;
75104;SDS011;64778;47.314;8.466;2023-02-21T17:42:02;12.10;;;7.60;;
75104;SDS011;64778;47.314;8.466;2023-02-21T17:44:28;25.73;;;13.95;;
75104;SDS011;64778;47.314;8.466;2023-02-21T17:46:54;64.57;;;34.80;;
75104;SDS011;64778;47.314;8.466;2023-02-21T17:49:22;50.03;;;28.97;;
75104;SDS011;64778;47.314;8.466;2023-02-21T17:51:51;25.05;;;15.23;;
75104;SDS011;64778;47.314;8.466;2023-02-21T17:54:22;35.10;;;19.03;;
75104;SDS011;64778;47.314;8.466;2023-02-21T17:56:49;22.02;;;11.77;;
75104;SDS011;64778;47.314;8.466;2023-02-21T17:59:15;16.17;;;10.40;;
75104;SDS011;64778;47.314;8.466;2023-02-21T18:01:44;12.57;;;8.30;;
75104;SDS011;64778;47.314;8.466;2023-02-21T18:04:10;12.07;;;8.40;;
75104;SDS011;64778;47.314;8.466;2023-02-21T18:06:40;12.70;;;8.00;;
75104;SDS011;64778;47.314;8.466;2023-02-21T18:09:06;13.55;;;8.00;;
75104;SDS011;64778;47.314;8.466;2023-02-21T18:11:34;12.17;;;7.97;;
75104;SDS011;64778;47.314;8.466;2023-02-21T18:14:03;14.82;;;8.52;;
75104;SDS011;64778;47.314;8.466;2023-02-21T18:16:31;15.32;;;8.35;;
75104;SDS011;64778;47.314;8.466;2023-02-21T18:18:57;15.07;;;8.67;;
75104;SDS011;64778;47.314;8.466;2023-02-21T18:21:22;13.00;;;8.10;;
75104;SDS011;64778;47.314;8.466;2023-02-21T18:23:51;15.45;;;9.10;;
75104;SDS011;64778;47.314;8.466;2023-02-21T18:26:19;11.70;;;8.00;;
75104;SDS011;64778;47.314;8.466;2023-02-21T18:28:45;16.17;;;8.93;;
75104;SDS011;64778;47.314;8.466;2023-02-21T18:31:16;34.22;;;24.05;;
75104;SDS011;64778;47.314;8.466;2023-02-21T18:33:45;42.58;;;28.48;;
75104;SDS011;64778;47.314;8.466;2023-02-21T18:36:13;45.28;;;28.27;;
75104;SDS011;64778;47.314;8.466;2023-02-21T18:38:39;33.72;;;23.45;;
75104;SDS011;64778;47.314;8.466;2023-02-21T18:41:08;32.38;;;21.90;;
75104;SDS011;64778;47.314;8.466;2023-02-21T18:43:35;23.92;;;17.15;;
75104;SDS011;64778;47.314;8.466;2023-02-21T18:46:05;17.45;;;12.90;;
75104;SDS011;64778;47.314;8.466;2023-02-21T18:48:39;17.42;;;11.48;;
75104;SDS011;64778;47.314;8.466;2023-02-21T18:51:07;16.73;;;9.98;;
75104;SDS011;64778;47.314;8.466;2023-02-21T18:53:35;16.58;;;10.75;;
75104;SDS011;64778;47.314;8.466;2023-02-21T18:56:06;12.60;;;9.05;;
75104;SDS011;64778;47.314;8.466;2023-02-21T18:58:34;13.90;;;8.57;;
75104;SDS011;64778;47.314;8.466;2023-02-21T19:01:05;14.03;;;8.10;;
75104;SDS011;64778;47.314;8.466;2023-02-21T19:03:31;12.38;;;7.68;;
75104;SDS011;64778;47.314;8.466;2023-02-21T19:05:59;13.57;;;8.63;;
75104;SDS011;64778;47.314;8.466;2023-02-21T19:08:25;12.27;;;8.95;;
75104;SDS011;64778;47.314;8.466;2023-02-21T19:10:53;14.60;;;9.45;;
75104;SDS011;64778;47.314;8.466;2023-02-21T19:13:19;16.03;;;9.90;;
75104;SDS011;64778;47.314;8.466;2023-02-21T19:15:47;15.53;;;9.30;;
75104;SDS011;64778;47.314;8.466;2023-02-21T19:18:15;13.65;;;8.50;;
75104;SDS011;64778;47.314;8.466;2023-02-21T19:20:41;12.30;;;7.95;;
75104;SDS011;64778;47.314;8.466;2023-02-21T19:23:11;14.35;;;8.15;;
75104;SDS011;64778;47.314;8.466;2023-02-21T19:25:37;14.98;;;8.13;;
75104;SDS011;64778;47.314;8.466;2023-02-21T19:28:03;13.48;;;7.60;;
75104;SDS011;64778;47.314;8.466;2023-02-21T19:30:33;11.73;;;7.70;;
75104;SDS011;64778;47.314;8.466;2023-02-21T19:33:01;15.25;;;8.15;;
75104;SDS011;64778;47.314;8.466;2023-02-21T19:35:33;12.20;;;8.15;;
75104;SDS011;64778;47.314;8.466;2023-02-21T19:38:06;12.85;;;7.90;;
75104;SDS011;64778;47.314;8.466;2023-02-21T19:40:32;12.10;;;8.10;;
75104;SDS011;64778;47.314;8.466;2023-02-21T19:42:58;13.25;;;7.72;;
75104;SDS011;64778;47.314;8.466;2023-02-21T19:45:30;12.15;;;8.02;;
75104;SDS011;64778;47.314;8.466;2023-02-21T19:47:58;15.63;;;7.88;;
75104;SDS011;64778;47.314;8.466;2023-02-21T19:50:24;13.43;;;8.10;;
75104;SDS011;64778;47.314;8.466;2023-02-21T19:52:51;14.57;;;8.23;;
75104;SDS011;64778;47.314;8.466;2023-02-21T19:55:20;18.17;;;8.60;;
75104;SDS011;64778;47.314;8.466;2023-02-21T19:57:47;13.70;;;8.35;;
75104;SDS011;64778;47.314;8.466;2023-02-21T20:00:13;12.85;;;7.85;;
75104;SDS011;64778;47.314;8.466;2023-02-21T20:02:39;14.77;;;8.50;;
75104;SDS011;64778;47.314;8.466;2023-02-21T20:05:05;12.95;;;8.18;;
75104;SDS011;64778;47.314;8.466;2023-02-21T20:07:32;15.07;;;8.35;;
75104;SDS011;64778;47.314;8.466;2023-02-21T20:10:00;13.18;;;8.00;;
75104;SDS011;64778;47.314;8.466;2023-02-21T20:12:28;13.00;;;8.10;;
75104;SDS011;64778;47.314;8.466;2023-02-21T20:14:58;12.77;;;8.40;;
75104;SDS011;64778;47.314;8.466;2023-02-21T20:19:52;13.52;;;6.88;;
75104;SDS011;64778;47.314;8.466;2023-02-21T20:24:43;12.15;;;6.57;;
75104;SDS011;64778;47.314;8.466;2023-02-21T20:27:14;10.82;;;6.20;;
75104;SDS011;64778;47.314;8.466;2023-02-21T20:29:45;11.40;;;6.50;;
75104;SDS011;64778;47.314;8.466;2023-02-21T20:32:10;11.82;;;6.35;;
75104;SDS011;64778;47.314;8.466;2023-02-21T20:34:42;14.27;;;7.25;;
75104;SDS011;64778;47.314;8.466;2023-02-21T20:39:35;10.88;;;7.25;;
75104;SDS011;64778;47.314;8.466;2023-02-21T20:42:01;18.42;;;7.55;;
75104;SDS011;64778;47.314;8.466;2023-02-21T20:44:32;13.30;;;7.60;;
75104;SDS011;64778;47.314;8.466;2023-02-21T20:47:03;12.55;;;7.25;;
75104;SDS011;64778;47.314;8.466;2023-02-21T20:49:29;16.58;;;7.43;;
75104;SDS011;64778;47.314;8.466;2023-02-21T20:51:59;13.27;;;7.03;;
75104;SDS011;64778;47.314;8.466;2023-02-21T20:54:25;12.10;;;7.53;;
75104;SDS011;64778;47.314;8.466;2023-02-21T20:59:24;13.38;;;7.18;;
75104;SDS011;64778;47.314;8.466;2023-02-21T21:01:55;14.00;;;7.18;;
75104;SDS011;64778;47.314;8.466;2023-02-21T21:04:23;11.55;;;6.80;;
75104;SDS011;64778;47.314;8.466;2023-02-21T21:06:51;12.68;;;7.00;;
75104;SDS011;64778;47.314;8.466;2023-02-21T21:09:23;14.85;;;7.10;;
75104;SDS011;64778;47.314;8.466;2023-02-21T21:12:16;12.77;;;6.35;;
75104;SDS011;64778;47.314;8.466;2023-02-21T21:14:47;13.90;;;6.72;;
75104;SDS011;64778;47.314;8.466;2023-02-21T21:17:19;12.20;;;6.75;;
75104;SDS011;64778;47.314;8.466;2023-02-21T21:19:46;10.93;;;6.38;;
75104;SDS011;64778;47.314;8.466;2023-02-21T22:51:11;14.60;;;6.60;;
75104;SDS011;64778;47.314;8.466;2023-02-21T22:53:40;11.15;;;6.97;;
75104;SDS011;64778;47.314;8.466;2023-02-21T22:58:35;11.95;;;6.22;;
75104;SDS011;64778;47.314;8.466;2023-02-21T23:01:04;11.38;;;6.70;;
75104;SDS011;64778;47.314;8.466;2023-02-21T23:03:35;10.95;;;6.78;;
75104;SDS011;64778;47.314;8.466;2023-02-21T23:06:02;14.65;;;7.05;;
75104;SDS011;64778;47.314;8.466;2023-02-21T23:08:31;10.32;;;6.75;;
75104;SDS011;64778;47.314;8.466;2023-02-21T23:11:01;13.05;;;8.30;;
75104;SDS011;64778;47.314;8.466;2023-02-21T23:13:27;14.10;;;8.00;;
75104;SDS011;64778;47.314;8.466;2023-02-21T23:15:56;12.55;;;8.55;;
75104;SDS011;64778;47.314;8.466;2023-02-21T23:18:22;13.67;;;8.73;;
75104;SDS011;64778;47.314;8.466;2023-02-21T23:20:53;14.10;;;8.73;;
75104;SDS011;64778;47.314;8.466;2023-02-21T23:23:20;12.05;;;7.65;;